sensor_id;sensor_type;location;lat;lon;timestamp;pressure;altitude;pressure_sealevel;temperature;humidity
54146;BME280;40052;49.422;7.738;2022-07-06T00:02:06;74372.97;;;-145.25;50.55
54146;BME280;40052;49.422;7.738;2022-07-06T00:04:31;74368.97;;;-145.25;50.59
54146;BME280;40052;49.422;7.738;2022-07-06T00:06:57;74352.94;;;-145.25;50.48
54146;BME280;40052;49.422;7.738;2022-07-06T00:09:22;74354.94;;;-145.25;50.58
54146;BME280;40052;49.422;7.738;2022-07-06T00:11:50;74356.94;;;-145.25;50.59
54146;BME280;40052;49.422;7.738;2022-07-06T00:14:18;74356.94;;;-145.25;50.55
54146;BME280;40052;49.422;7.738;2022-07-06T00:16:43;74352.94;;;-145.25;50.50
54146;BME280;40052;49.422;7.738;2022-07-06T00:19:11;74340.91;;;-145.25;50.44
54146;BME280;40052;49.422;7.738;2022-07-06T00:21:37;74352.94;;;-145.25;50.48
54146;BME280;40052;49.422;7.738;2022-07-06T00:24:05;74368.97;;;-145.25;50.91
54146;BME280;40052;49.422;7.738;2022-07-06T00:26:31;74344.91;;;-145.25;50.69
54146;BME280;40052;49.422;7.738;2022-07-06T00:28:59;74344.91;;;-145.25;50.76
54146;BME280;40052;49.422;7.738;2022-07-06T00:31:24;74332.88;;;-145.25;50.55
54146;BME280;40052;49.422;7.738;2022-07-06T00:33:52;74342.91;;;-145.25;50.51
54146;BME280;40052;49.422;7.738;2022-07-06T00:36:20;74356.94;;;-145.25;50.71
54146;BME280;40052;49.422;7.738;2022-07-06T00:38:45;74366.94;;;-145.25;50.80
54146;BME280;40052;49.422;7.738;2022-07-06T00:41:14;74368.97;;;-145.25;50.99
54146;BME280;40052;49.422;7.738;2022-07-06T00:43:53;74389.00;;;-145.25;51.52
54146;BME280;40052;49.422;7.738;2022-07-06T00:46:23;74393.00;;;-145.25;51.59
54146;BME280;40052;49.422;7.738;2022-07-06T00:48:50;74387.00;;;-145.25;51.53
54146;BME280;40052;49.422;7.738;2022-07-06T00:51:16;74393.00;;;-145.25;51.43
54146;BME280;40052;49.422;7.738;2022-07-06T00:53:42;74393.00;;;-145.25;51.39
54146;BME280;40052;49.422;7.738;2022-07-06T00:56:08;74417.06;;;-145.25;51.98
54146;BME280;40052;49.422;7.738;2022-07-06T00:58:34;74433.09;;;-145.25;52.17
54146;BME280;40052;49.422;7.738;2022-07-06T01:01:00;74445.09;;;-145.25;52.33
54146;BME280;40052;49.422;7.738;2022-07-06T01:03:28;74409.03;;;-145.25;51.80
54146;BME280;40052;49.422;7.738;2022-07-06T01:05:53;74507.22;;;-145.25;53.20
54146;BME280;40052;49.422;7.738;2022-07-06T01:08:19;74533.28;;;-145.25;54.05
54146;BME280;40052;49.422;7.738;2022-07-06T01:10:47;74559.31;;;-145.25;54.18
54146;BME280;40052;49.422;7.738;2022-07-06T01:13:13;74521.25;;;-145.25;53.93
54146;BME280;40052;49.422;7.738;2022-07-06T01:15:38;74491.19;;;-145.25;53.27
54146;BME280;40052;49.422;7.738;2022-07-06T01:18:09;74491.19;;;-145.25;53.11
54146;BME280;40052;49.422;7.738;2022-07-06T01:20:35;74493.19;;;-145.25;53.33
54146;BME280;40052;49.422;7.738;2022-07-06T01:23:03;74529.25;;;-145.25;53.57
54146;BME280;40052;49.422;7.738;2022-07-06T01:25:31;74527.25;;;-145.25;53.88
54146;BME280;40052;49.422;7.738;2022-07-06T01:27:57;74547.31;;;-145.25;54.24
54146;BME280;40052;49.422;7.738;2022-07-06T01:30:22;74515.25;;;-145.25;53.62
54146;BME280;40052;49.422;7.738;2022-07-06T01:32:48;74501.22;;;-145.25;53.46
54146;BME280;40052;49.422;7.738;2022-07-06T01:35:14;74475.16;;;-145.25;52.77
54146;BME280;40052;49.422;7.738;2022-07-06T01:37:44;74459.13;;;-145.25;52.36
54146;BME280;40052;49.422;7.738;2022-07-06T01:40:10;74457.13;;;-145.25;52.37
54146;BME280;40052;49.422;7.738;2022-07-06T01:42:36;74451.13;;;-145.25;52.08
54146;BME280;40052;49.422;7.738;2022-07-06T01:45:04;74443.09;;;-145.25;52.17
54146;BME280;40052;49.422;7.738;2022-07-06T01:47:29;74455.13;;;-145.25;51.97
54146;BME280;40052;49.422;7.738;2022-07-06T01:49:58;74467.16;;;-145.25;52.37
54146;BME280;40052;49.422;7.738;2022-07-06T01:52:24;74491.19;;;-145.25;52.79
54146;BME280;40052;49.422;7.738;2022-07-06T01:54:50;74491.19;;;-145.25;52.87
54146;BME280;40052;49.422;7.738;2022-07-06T01:57:18;74525.25;;;-145.25;53.10
54146;BME280;40052;49.422;7.738;2022-07-06T01:59:43;74519.25;;;-145.25;53.50
54146;BME280;40052;49.422;7.738;2022-07-06T02:02:11;74501.22;;;-145.25;53.01
54146;BME280;40052;49.422;7.738;2022-07-06T02:04:36;74503.22;;;-145.25;52.87
54146;BME280;40052;49.422;7.738;2022-07-06T02:07:02;74493.19;;;-145.25;53.02
54146;BME280;40052;49.422;7.738;2022-07-06T02:09:30;74529.25;;;-145.25;53.24
54146;BME280;40052;49.422;7.738;2022-07-06T02:11:55;74525.25;;;-145.25;53.50
54146;BME280;40052;49.422;7.738;2022-07-06T02:14:21;74507.22;;;-145.25;53.17
54146;BME280;40052;49.422;7.738;2022-07-06T02:16:46;74559.31;;;-145.25;54.21
54146;BME280;40052;49.422;7.738;2022-07-06T02:19:12;74557.31;;;-145.25;53.95
54146;BME280;40052;49.422;7.738;2022-07-06T02:21:37;74571.34;;;-145.25;54.25
54146;BME280;40052;49.422;7.738;2022-07-06T02:24:03;74605.41;;;-145.25;54.94
54146;BME280;40052;49.422;7.738;2022-07-06T02:26:28;74585.38;;;-145.25;54.88
54146;BME280;40052;49.422;7.738;2022-07-06T02:28:56;74581.38;;;-145.25;54.38
54146;BME280;40052;49.422;7.738;2022-07-06T02:31:21;74561.31;;;-145.25;54.10
54146;BME280;40052;49.422;7.738;2022-07-06T02:33:47;74563.34;;;-145.25;54.21
54146;BME280;40052;49.422;7.738;2022-07-06T02:36:14;74609.41;;;-145.25;55.17
54146;BME280;40052;49.422;7.738;2022-07-06T02:38:40;74587.38;;;-145.25;54.83
54146;BME280;40052;49.422;7.738;2022-07-06T02:41:05;74545.28;;;-145.25;53.69
54146;BME280;40052;49.422;7.738;2022-07-06T02:43:31;74527.25;;;-145.25;53.46
54146;BME280;40052;49.422;7.738;2022-07-06T02:45:56;74515.25;;;-145.25;52.83
54146;BME280;40052;49.422;7.738;2022-07-06T02:48:24;74511.22;;;-145.25;52.64
54146;BME280;40052;49.422;7.738;2022-07-06T02:50:49;74509.22;;;-145.25;52.61
54146;BME280;40052;49.422;7.738;2022-07-06T02:53:18;74539.28;;;-145.25;53.22
54146;BME280;40052;49.422;7.738;2022-07-06T02:55:44;74549.31;;;-145.25;53.56
54146;BME280;40052;49.422;7.738;2022-07-06T02:58:09;74541.28;;;-145.25;53.37
54146;BME280;40052;49.422;7.738;2022-07-06T03:00:34;74579.38;;;-145.25;53.62
54146;BME280;40052;49.422;7.738;2022-07-06T03:03:02;74581.38;;;-145.25;53.70
54146;BME280;40052;49.422;7.738;2022-07-06T03:05:28;74651.50;;;-145.25;55.15
54146;BME280;40052;49.422;7.738;2022-07-06T03:07:53;74653.50;;;-145.25;55.19
54146;BME280;40052;49.422;7.738;2022-07-06T03:10:18;74659.53;;;-145.25;55.10
54146;BME280;40052;49.422;7.738;2022-07-06T03:12:44;74629.47;;;-145.25;54.56
54146;BME280;40052;49.422;7.738;2022-07-06T03:15:09;74603.41;;;-145.25;54.09
54146;BME280;40052;49.422;7.738;2022-07-06T03:17:38;74605.41;;;-145.25;53.89
54146;BME280;40052;49.422;7.738;2022-07-06T03:20:05;74603.41;;;-145.25;53.92
54146;BME280;40052;49.422;7.738;2022-07-06T03:22:30;74647.50;;;-145.25;54.50
54146;BME280;40052;49.422;7.738;2022-07-06T03:24:56;74635.47;;;-145.25;54.11
54146;BME280;40052;49.422;7.738;2022-07-06T03:27:22;74665.53;;;-145.25;54.33
54146;BME280;40052;49.422;7.738;2022-07-06T03:29:48;74671.53;;;-145.25;54.91
54146;BME280;40052;49.422;7.738;2022-07-06T03:32:13;74679.56;;;-145.25;55.28
54146;BME280;40052;49.422;7.738;2022-07-06T03:34:39;74653.50;;;-145.25;54.72
54146;BME280;40052;49.422;7.738;2022-07-06T03:37:04;74665.53;;;-145.25;55.02
54146;BME280;40052;49.422;7.738;2022-07-06T03:39:31;74703.59;;;-145.25;55.23
54146;BME280;40052;49.422;7.738;2022-07-06T03:41:56;74701.59;;;-145.25;55.42
54146;BME280;40052;49.422;7.738;2022-07-06T03:44:24;74765.72;;;-145.25;56.39
54146;BME280;40052;49.422;7.738;2022-07-06T03:46:49;74819.84;;;-145.25;57.50
54146;BME280;40052;49.422;7.738;2022-07-06T03:49:18;74761.72;;;-145.25;57.10
54146;BME280;40052;49.422;7.738;2022-07-06T03:51:44;74735.69;;;-145.25;56.12
54146;BME280;40052;49.422;7.738;2022-07-06T03:54:09;74727.66;;;-145.25;55.53
54146;BME280;40052;49.422;7.738;2022-07-06T03:56:34;74747.69;;;-145.25;55.90
54146;BME280;40052;49.422;7.738;2022-07-06T03:59:04;74727.66;;;-145.25;55.49
54146;BME280;40052;49.422;7.738;2022-07-06T04:01:32;74737.69;;;-145.25;55.96
54146;BME280;40052;49.422;7.738;2022-07-06T04:03:57;74735.69;;;-145.25;55.63
54146;BME280;40052;49.422;7.738;2022-07-06T04:06:23;74757.72;;;-145.25;55.93
54146;BME280;40052;49.422;7.738;2022-07-06T04:08:51;74731.66;;;-145.25;55.42
54146;BME280;40052;49.422;7.738;2022-07-06T04:11:19;74747.69;;;-145.25;55.80
54146;BME280;40052;49.422;7.738;2022-07-06T04:13:46;74731.66;;;-145.25;55.31
54146;BME280;40052;49.422;7.738;2022-07-06T04:16:12;74725.66;;;-145.25;55.15
54146;BME280;40052;49.422;7.738;2022-07-06T04:18:37;74697.59;;;-145.25;54.95
54146;BME280;40052;49.422;7.738;2022-07-06T04:21:03;74741.69;;;-145.25;55.47
54146;BME280;40052;49.422;7.738;2022-07-06T04:23:28;74731.66;;;-145.25;55.71
54146;BME280;40052;49.422;7.738;2022-07-06T04:25:54;74715.63;;;-145.25;55.20
54146;BME280;40052;49.422;7.738;2022-07-06T04:28:19;74733.66;;;-145.25;55.54
54146;BME280;40052;49.422;7.738;2022-07-06T04:30:44;74771.75;;;-145.25;56.30
54146;BME280;40052;49.422;7.738;2022-07-06T04:33:10;74795.78;;;-145.25;56.65
54146;BME280;40052;49.422;7.738;2022-07-06T04:35:38;74833.88;;;-145.25;57.11
54146;BME280;40052;49.422;7.738;2022-07-06T04:38:03;74853.91;;;-145.25;57.42
54146;BME280;40052;49.422;7.738;2022-07-06T04:40:32;74853.91;;;-145.25;57.72
54146;BME280;40052;49.422;7.738;2022-07-06T04:42:57;74861.94;;;-145.25;58.04
54146;BME280;40052;49.422;7.738;2022-07-06T04:45:23;74845.91;;;-145.25;57.81
54146;BME280;40052;49.422;7.738;2022-07-06T04:47:48;74873.94;;;-145.25;57.99
54146;BME280;40052;49.422;7.738;2022-07-06T04:50:16;74892.00;;;-145.25;58.73
54146;BME280;40052;49.422;7.738;2022-07-06T04:52:41;74887.97;;;-145.25;58.74
54146;BME280;40052;49.422;7.738;2022-07-06T04:55:06;74898.00;;;-145.25;59.17
54146;BME280;40052;49.422;7.738;2022-07-06T04:57:36;74902.00;;;-145.25;59.34
54146;BME280;40052;49.422;7.738;2022-07-06T05:00:03;74867.94;;;-145.25;58.52
54146;BME280;40052;49.422;7.738;2022-07-06T05:02:33;74881.97;;;-145.25;58.80
54146;BME280;40052;49.422;7.738;2022-07-06T05:05:00;74896.00;;;-145.25;59.37
54146;BME280;40052;49.422;7.738;2022-07-06T05:07:26;74894.00;;;-145.25;59.31
54146;BME280;40052;49.422;7.738;2022-07-06T05:09:54;74883.97;;;-145.25;59.09
54146;BME280;40052;49.422;7.738;2022-07-06T05:12:22;74873.94;;;-145.25;58.75
54146;BME280;40052;49.422;7.738;2022-07-06T05:14:47;74859.91;;;-145.25;57.84
54146;BME280;40052;49.422;7.738;2022-07-06T05:17:12;74865.94;;;-145.25;58.46
54146;BME280;40052;49.422;7.738;2022-07-06T05:19:38;74900.00;;;-145.25;58.09
54146;BME280;40052;49.422;7.738;2022-07-06T05:22:03;74894.00;;;-145.25;58.07
54146;BME280;40052;49.422;7.738;2022-07-06T05:24:29;74873.94;;;-145.25;57.64
54146;BME280;40052;49.422;7.738;2022-07-06T05:26:56;74898.00;;;-145.25;57.88
54146;BME280;40052;49.422;7.738;2022-07-06T05:29:24;74896.00;;;-145.25;58.23
54146;BME280;40052;49.422;7.738;2022-07-06T05:31:49;74873.94;;;-145.25;57.89
54146;BME280;40052;49.422;7.738;2022-07-06T05:34:15;74851.91;;;-145.25;57.43
54146;BME280;40052;49.422;7.738;2022-07-06T05:36:40;74815.84;;;-145.25;56.64
54146;BME280;40052;49.422;7.738;2022-07-06T05:39:06;74809.81;;;-145.25;56.24
54146;BME280;40052;49.422;7.738;2022-07-06T05:41:31;74805.81;;;-145.25;56.47
54146;BME280;40052;49.422;7.738;2022-07-06T05:43:57;74811.81;;;-145.25;56.09
54146;BME280;40052;49.422;7.738;2022-07-06T05:46:22;74813.81;;;-145.25;56.57
54146;BME280;40052;49.422;7.738;2022-07-06T05:48:47;74837.88;;;-145.25;56.65
54146;BME280;40052;49.422;7.738;2022-07-06T05:51:32;74851.91;;;-145.25;56.70
54146;BME280;40052;49.422;7.738;2022-07-06T05:53:57;74853.91;;;-145.25;56.76
54146;BME280;40052;49.422;7.738;2022-07-06T05:56:25;74855.91;;;-145.25;56.41
54146;BME280;40052;49.422;7.738;2022-07-06T05:58:51;74863.94;;;-145.25;56.83
54146;BME280;40052;49.422;7.738;2022-07-06T06:01:16;74849.91;;;-145.25;55.26
54146;BME280;40052;49.422;7.738;2022-07-06T06:03:41;74851.91;;;-145.25;55.53
54146;BME280;40052;49.422;7.738;2022-07-06T06:06:07;74839.88;;;-145.25;53.41
54146;BME280;40052;49.422;7.738;2022-07-06T06:08:37;74849.91;;;-145.25;53.39
54146;BME280;40052;49.422;7.738;2022-07-06T06:11:04;74849.91;;;-145.25;53.13
54146;BME280;40052;49.422;7.738;2022-07-06T06:13:30;74831.88;;;-145.25;52.97
54146;BME280;40052;49.422;7.738;2022-07-06T06:15:55;74793.78;;;-145.25;52.56
54146;BME280;40052;49.422;7.738;2022-07-06T06:18:21;74791.78;;;-145.25;51.30
54146;BME280;40052;49.422;7.738;2022-07-06T06:20:48;74811.81;;;-145.25;51.66
54146;BME280;40052;49.422;7.738;2022-07-06T06:23:14;74805.81;;;-145.25;52.14
54146;BME280;40052;49.422;7.738;2022-07-06T06:25:40;74803.81;;;-145.25;52.06
54146;BME280;40052;49.422;7.738;2022-07-06T06:28:10;74809.81;;;-145.25;52.12
54146;BME280;40052;49.422;7.738;2022-07-06T06:30:38;74819.84;;;-145.25;52.12
54146;BME280;40052;49.422;7.738;2022-07-06T06:33:15;74811.81;;;-145.25;52.02
54146;BME280;40052;49.422;7.738;2022-07-06T06:35:43;74811.81;;;-145.25;51.77
54146;BME280;40052;49.422;7.738;2022-07-06T06:38:12;74787.78;;;-145.25;51.77
54146;BME280;40052;49.422;7.738;2022-07-06T06:40:41;74781.75;;;-145.25;51.71
54146;BME280;40052;49.422;7.738;2022-07-06T06:43:07;74765.72;;;-145.25;50.93
54146;BME280;40052;49.422;7.738;2022-07-06T06:45:32;74783.78;;;-145.25;50.94
54146;BME280;40052;49.422;7.738;2022-07-06T06:47:58;74771.75;;;-145.25;51.09
54146;BME280;40052;49.422;7.738;2022-07-06T06:50:23;74755.72;;;-145.25;50.90
54146;BME280;40052;49.422;7.738;2022-07-06T06:52:49;74749.69;;;-145.25;50.64
54146;BME280;40052;49.422;7.738;2022-07-06T06:55:16;74723.66;;;-145.25;50.42
54146;BME280;40052;49.422;7.738;2022-07-06T06:57:45;74711.63;;;-145.25;49.95
54146;BME280;40052;49.422;7.738;2022-07-06T07:00:11;74705.63;;;-145.25;50.14
54146;BME280;40052;49.422;7.738;2022-07-06T07:02:40;74729.66;;;-145.25;50.01
54146;BME280;40052;49.422;7.738;2022-07-06T07:05:05;74711.63;;;-145.25;50.16
54146;BME280;40052;49.422;7.738;2022-07-06T07:07:34;74715.63;;;-145.25;50.02
54146;BME280;40052;49.422;7.738;2022-07-06T07:10:00;74735.69;;;-145.25;49.97
54146;BME280;40052;49.422;7.738;2022-07-06T07:12:27;74731.66;;;-145.25;49.80
54146;BME280;40052;49.422;7.738;2022-07-06T07:14:55;74713.63;;;-145.25;49.58
54146;BME280;40052;49.422;7.738;2022-07-06T07:17:20;74729.66;;;-145.25;49.75
54146;BME280;40052;49.422;7.738;2022-07-06T07:19:46;74709.63;;;-145.25;49.37
54146;BME280;40052;49.422;7.738;2022-07-06T07:22:11;74695.59;;;-145.25;49.59
54146;BME280;40052;49.422;7.738;2022-07-06T07:24:39;74705.63;;;-145.25;49.20
54146;BME280;40052;49.422;7.738;2022-07-06T07:27:04;74701.59;;;-145.25;49.51
54146;BME280;40052;49.422;7.738;2022-07-06T07:29:30;74705.63;;;-145.25;49.26
54146;BME280;40052;49.422;7.738;2022-07-06T07:31:55;74691.59;;;-145.25;49.34
54146;BME280;40052;49.422;7.738;2022-07-06T07:34:23;74709.63;;;-145.25;49.04
54146;BME280;40052;49.422;7.738;2022-07-06T07:36:50;74687.56;;;-145.25;48.66
54146;BME280;40052;49.422;7.738;2022-07-06T07:39:18;74659.53;;;-145.25;48.56
54146;BME280;40052;49.422;7.738;2022-07-06T07:41:46;74629.47;;;-145.25;48.15
54146;BME280;40052;49.422;7.738;2022-07-06T07:44:11;74599.41;;;-145.25;47.25
54146;BME280;40052;49.422;7.738;2022-07-06T07:46:37;74573.34;;;-145.25;46.86
54146;BME280;40052;49.422;7.738;2022-07-06T07:49:04;74525.25;;;-145.25;46.67
54146;BME280;40052;49.422;7.738;2022-07-06T07:51:33;74529.25;;;-145.25;46.45
54146;BME280;40052;49.422;7.738;2022-07-06T07:53:58;74515.25;;;-145.25;46.11
54146;BME280;40052;49.422;7.738;2022-07-06T07:56:26;74561.31;;;-145.25;47.17
54146;BME280;40052;49.422;7.738;2022-07-06T07:58:54;74569.34;;;-145.25;46.55
54146;BME280;40052;49.422;7.738;2022-07-06T08:01:21;74581.38;;;-145.25;46.80
54146;BME280;40052;49.422;7.738;2022-07-06T08:03:47;74539.28;;;-145.25;46.49
54146;BME280;40052;49.422;7.738;2022-07-06T08:06:12;74579.38;;;-145.25;46.79
54146;BME280;40052;49.422;7.738;2022-07-06T08:08:38;74571.34;;;-145.25;46.17
54146;BME280;40052;49.422;7.738;2022-07-06T08:11:03;74531.28;;;-145.25;46.55
54146;BME280;40052;49.422;7.738;2022-07-06T08:13:28;74533.28;;;-145.25;46.02
54146;BME280;40052;49.422;7.738;2022-07-06T08:15:54;74591.38;;;-145.25;46.25
54146;BME280;40052;49.422;7.738;2022-07-06T08:18:19;74587.38;;;-145.25;47.12
54146;BME280;40052;49.422;7.738;2022-07-06T08:20:45;74613.44;;;-145.25;46.48
54146;BME280;40052;49.422;7.738;2022-07-06T08:23:12;74585.38;;;-145.25;46.94
54146;BME280;40052;49.422;7.738;2022-07-06T08:25:38;74571.34;;;-145.25;46.34
54146;BME280;40052;49.422;7.738;2022-07-06T08:28:04;74537.28;;;-145.25;45.91
54146;BME280;40052;49.422;7.738;2022-07-06T08:30:31;74527.25;;;-145.25;45.85
54146;BME280;40052;49.422;7.738;2022-07-06T08:33:00;74475.16;;;-145.25;45.09
54146;BME280;40052;49.422;7.738;2022-07-06T08:35:25;74441.09;;;-145.25;44.07
54146;BME280;40052;49.422;7.738;2022-07-06T08:37:53;74457.13;;;-145.25;43.84
54146;BME280;40052;49.422;7.738;2022-07-06T08:40:18;74411.03;;;-145.25;43.31
54146;BME280;40052;49.422;7.738;2022-07-06T08:42:45;74401.03;;;-145.25;42.67
54146;BME280;40052;49.422;7.738;2022-07-06T08:45:13;74503.22;;;-145.25;43.87
54146;BME280;40052;49.422;7.738;2022-07-06T08:47:41;74419.06;;;-145.25;43.65
54146;BME280;40052;49.422;7.738;2022-07-06T08:50:07;74457.13;;;-145.25;43.60
54146;BME280;40052;49.422;7.738;2022-07-06T08:52:36;74497.19;;;-145.25;43.83
54146;BME280;40052;49.422;7.738;2022-07-06T08:55:02;74493.19;;;-145.25;43.38
54146;BME280;40052;49.422;7.738;2022-07-06T08:57:28;74451.13;;;-145.25;43.01
54146;BME280;40052;49.422;7.738;2022-07-06T08:59:54;74362.94;;;-145.25;41.90
54146;BME280;40052;49.422;7.738;2022-07-06T09:02:24;74304.84;;;-145.25;41.68
54146;BME280;40052;49.422;7.738;2022-07-06T09:04:54;74306.84;;;-145.25;41.27
54146;BME280;40052;49.422;7.738;2022-07-06T09:07:21;74372.97;;;-145.25;41.89
54146;BME280;40052;49.422;7.738;2022-07-06T09:09:47;74318.88;;;-145.25;41.53
54146;BME280;40052;49.422;7.738;2022-07-06T09:12:12;74278.78;;;-145.25;41.18
54146;BME280;40052;49.422;7.738;2022-07-06T09:14:41;74298.81;;;-145.25;41.05
54146;BME280;40052;49.422;7.738;2022-07-06T09:17:08;74304.84;;;-145.25;41.67
54146;BME280;40052;49.422;7.738;2022-07-06T09:19:34;74294.81;;;-145.25;41.06
54146;BME280;40052;49.422;7.738;2022-07-06T09:22:01;74224.69;;;-145.25;40.54
54146;BME280;40052;49.422;7.738;2022-07-06T09:24:28;74288.81;;;-145.25;40.85
54146;BME280;40052;49.422;7.738;2022-07-06T09:26:59;74236.72;;;-145.25;39.90
54146;BME280;40052;49.422;7.738;2022-07-06T09:29:29;74220.69;;;-145.25;39.49
54146;BME280;40052;49.422;7.738;2022-07-06T09:32:02;74228.69;;;-145.25;39.85
54146;BME280;40052;49.422;7.738;2022-07-06T09:37:08;74212.66;;;-145.25;38.93
54146;BME280;40052;49.422;7.738;2022-07-06T09:39:35;74244.72;;;-145.25;39.02
54146;BME280;40052;49.422;7.738;2022-07-06T09:42:01;74188.63;;;-145.25;38.75
54146;BME280;40052;49.422;7.738;2022-07-06T09:44:31;74136.53;;;-145.25;38.42
54146;BME280;40052;49.422;7.738;2022-07-06T09:47:04;74192.63;;;-145.25;38.03
54146;BME280;40052;49.422;7.738;2022-07-06T09:49:31;74236.72;;;-145.25;38.64
54146;BME280;40052;49.422;7.738;2022-07-06T09:51:59;74228.69;;;-145.25;38.98
54146;BME280;40052;49.422;7.738;2022-07-06T09:54:27;74160.56;;;-145.25;38.33
54146;BME280;40052;49.422;7.738;2022-07-06T09:56:54;74160.56;;;-145.25;38.46
54146;BME280;40052;49.422;7.738;2022-07-06T09:59:24;74122.50;;;-145.25;38.32
54146;BME280;40052;49.422;7.738;2022-07-06T10:01:55;74080.41;;;-145.25;37.45
54146;BME280;40052;49.422;7.738;2022-07-06T10:04:22;74150.53;;;-145.25;37.91
54146;BME280;40052;49.422;7.738;2022-07-06T10:06:51;74226.69;;;-145.25;38.85
54146;BME280;40052;49.422;7.738;2022-07-06T10:09:20;74206.66;;;-145.25;38.54
54146;BME280;40052;49.422;7.738;2022-07-06T10:12:00;74232.69;;;-145.25;39.21
54146;BME280;40052;49.422;7.738;2022-07-06T10:14:28;74194.63;;;-145.25;40.88
54146;BME280;40052;49.422;7.738;2022-07-06T10:16:59;74158.56;;;-145.25;38.89
54146;BME280;40052;49.422;7.738;2022-07-06T10:19:26;74122.50;;;-145.25;38.28
54146;BME280;40052;49.422;7.738;2022-07-06T10:21:52;74164.56;;;-145.25;38.33
54146;BME280;40052;49.422;7.738;2022-07-06T10:24:19;74180.59;;;-145.25;37.88
54146;BME280;40052;49.422;7.738;2022-07-06T10:26:47;74178.59;;;-145.25;38.51
54146;BME280;40052;49.422;7.738;2022-07-06T10:29:16;74132.50;;;-145.25;38.16
54146;BME280;40052;49.422;7.738;2022-07-06T10:31:46;74086.44;;;-145.25;39.07
54146;BME280;40052;49.422;7.738;2022-07-06T10:34:15;74092.44;;;-145.25;36.90
54146;BME280;40052;49.422;7.738;2022-07-06T10:36:42;74104.47;;;-145.25;37.70
54146;BME280;40052;49.422;7.738;2022-07-06T10:39:09;74066.41;;;-145.25;38.66
54146;BME280;40052;49.422;7.738;2022-07-06T10:41:54;74130.50;;;-145.25;37.07
54146;BME280;40052;49.422;7.738;2022-07-06T10:44:22;74120.50;;;-145.25;38.20
54146;BME280;40052;49.422;7.738;2022-07-06T10:49:21;74096.44;;;-145.25;37.13
54146;BME280;40052;49.422;7.738;2022-07-06T10:51:50;74074.41;;;-145.25;36.95
54146;BME280;40052;49.422;7.738;2022-07-06T10:54:18;74078.41;;;-145.25;37.17
54146;BME280;40052;49.422;7.738;2022-07-06T10:56:50;74054.38;;;-145.25;36.64
54146;BME280;40052;49.422;7.738;2022-07-06T11:04:43;74056.38;;;-145.25;35.65
54146;BME280;40052;49.422;7.738;2022-07-06T11:07:18;74024.31;;;-145.25;36.84
54146;BME280;40052;49.422;7.738;2022-07-06T11:09:55;74000.28;;;-145.25;36.68
54146;BME280;40052;49.422;7.738;2022-07-06T11:12:23;73916.13;;;-145.25;35.25
54146;BME280;40052;49.422;7.738;2022-07-06T11:14:52;73900.09;;;-145.25;34.53
54146;BME280;40052;49.422;7.738;2022-07-06T11:17:24;73900.09;;;-145.25;35.03
54146;BME280;40052;49.422;7.738;2022-07-06T11:19:57;73912.13;;;-145.25;34.13
54146;BME280;40052;49.422;7.738;2022-07-06T11:22:26;73846.00;;;-145.25;34.65
54146;BME280;40052;49.422;7.738;2022-07-06T11:24:55;73823.97;;;-145.25;34.02
54146;BME280;40052;49.422;7.738;2022-07-06T11:27:22;73840.00;;;-145.25;34.33
54146;BME280;40052;49.422;7.738;2022-07-06T11:29:48;73807.94;;;-145.25;34.27
54146;BME280;40052;49.422;7.738;2022-07-06T11:32:13;73850.00;;;-145.25;33.83
54146;BME280;40052;49.422;7.738;2022-07-06T11:34:41;73900.09;;;-145.25;34.22
54146;BME280;40052;49.422;7.738;2022-07-06T11:37:10;73868.03;;;-145.25;33.86
54146;BME280;40052;49.422;7.738;2022-07-06T11:39:41;73868.03;;;-145.25;33.34
54146;BME280;40052;49.422;7.738;2022-07-06T11:42:08;73968.22;;;-145.25;34.21
54146;BME280;40052;49.422;7.738;2022-07-06T11:44:37;73916.13;;;-145.25;34.07
54146;BME280;40052;49.422;7.738;2022-07-06T11:47:04;73860.03;;;-145.25;33.77
54146;BME280;40052;49.422;7.738;2022-07-06T11:49:31;73809.94;;;-145.25;33.56
54146;BME280;40052;49.422;7.738;2022-07-06T11:51:56;73793.91;;;-145.25;33.48
54146;BME280;40052;49.422;7.738;2022-07-06T11:54:25;73789.91;;;-145.25;33.37
54146;BME280;40052;49.422;7.738;2022-07-06T11:56:53;73745.81;;;-145.25;33.31
54146;BME280;40052;49.422;7.738;2022-07-06T11:59:29;73733.81;;;-145.25;32.49
54146;BME280;40052;49.422;7.738;2022-07-06T12:04:25;73757.84;;;-145.25;33.21
54146;BME280;40052;49.422;7.738;2022-07-06T12:06:54;73759.84;;;-145.25;32.96
54146;BME280;40052;49.422;7.738;2022-07-06T12:09:20;73751.84;;;-145.25;33.19
54146;BME280;40052;49.422;7.738;2022-07-06T12:11:46;73739.81;;;-145.25;33.09
54146;BME280;40052;49.422;7.738;2022-07-06T12:14:17;73679.72;;;-145.25;32.61
54146;BME280;40052;49.422;7.738;2022-07-06T12:16:43;73689.72;;;-145.25;32.29
54146;BME280;40052;49.422;7.738;2022-07-06T12:19:11;73755.84;;;-145.25;32.21
54146;BME280;40052;49.422;7.738;2022-07-06T12:21:48;73713.75;;;-145.25;32.65
54146;BME280;40052;49.422;7.738;2022-07-06T12:24:25;73715.78;;;-145.25;32.96
54146;BME280;40052;49.422;7.738;2022-07-06T12:26:52;73735.81;;;-145.25;32.83
54146;BME280;40052;49.422;7.738;2022-07-06T12:29:18;73789.91;;;-145.25;33.15
54146;BME280;40052;49.422;7.738;2022-07-06T12:34:23;73749.81;;;-145.25;32.73
54146;BME280;40052;49.422;7.738;2022-07-06T12:36:55;73749.81;;;-145.25;32.94
54146;BME280;40052;49.422;7.738;2022-07-06T12:39:27;73695.72;;;-145.25;32.77
54146;BME280;40052;49.422;7.738;2022-07-06T12:42:01;73733.81;;;-145.25;32.88
54146;BME280;40052;49.422;7.738;2022-07-06T12:44:28;73747.81;;;-145.25;33.30
54146;BME280;40052;49.422;7.738;2022-07-06T12:47:06;73739.81;;;-145.25;33.76
54146;BME280;40052;49.422;7.738;2022-07-06T12:49:33;73753.84;;;-145.25;33.01
54146;BME280;40052;49.422;7.738;2022-07-06T12:52:04;73727.78;;;-145.25;33.16
54146;BME280;40052;49.422;7.738;2022-07-06T12:57:16;73707.75;;;-145.25;32.54
54146;BME280;40052;49.422;7.738;2022-07-06T12:59:57;73713.75;;;-145.25;32.95